createdAt,value
2022-10-12T00:01:47.988Z,16.00
2022-10-12T00:13:48.389Z,18.60
2022-10-12T00:25:48.881Z,19.30
2022-10-12T00:37:49.292Z,16.50
2022-10-12T00:49:49.733Z,16.30
2022-10-12T01:01:50.219Z,15.80
2022-10-12T01:13:50.662Z,15.30
2022-10-12T01:25:51.118Z,15.40
2022-10-12T01:37:51.549Z,16.70
2022-10-12T01:49:52.009Z,14.70
2022-10-12T02:01:52.477Z,15.10
2022-10-12T02:07:52.446Z,14.80
2022-10-12T02:13:52.446Z,14.80
2022-10-12T02:25:52.930Z,14.60
2022-10-12T02:31:52.925Z,15.70
2022-10-12T02:37:52.898Z,16.30
2022-10-12T02:49:53.376Z,15.80
2022-10-12T03:01:53.811Z,15.90
2022-10-12T03:13:54.269Z,16.50
2022-10-12T03:19:54.281Z,16.70
2022-10-12T03:25:54.287Z,16.00
2022-10-12T03:37:54.749Z,16.80
2022-10-12T03:49:55.339Z,17.10
2022-10-12T04:01:55.678Z,19.90
2022-10-12T04:07:55.629Z,19.30
2022-10-12T04:13:55.658Z,17.80
2022-10-12T04:19:55.637Z,16.70
2022-10-12T04:26:02.750Z,17.80
2022-10-12T04:32:02.768Z,17.90
2022-10-12T04:38:02.737Z,17.90
2022-10-12T04:44:02.777Z,17.30
2022-10-12T04:50:02.741Z,18.90
2022-10-12T05:02:03.234Z,18.00
2022-10-12T05:14:03.688Z,17.00
2022-10-12T05:26:04.118Z,16.70
2022-10-12T05:38:04.573Z,23.00
2022-10-12T05:50:05.065Z,17.90
2022-10-12T06:02:05.585Z,20.60
2022-10-12T06:14:05.950Z,19.60
2022-10-12T06:20:05.961Z,19.70
2022-10-12T06:26:05.921Z,21.90
2022-10-12T06:38:06.403Z,21.90
2022-10-12T06:50:06.865Z,19.80
2022-10-12T07:02:07.338Z,13.00
2022-10-12T07:08:07.291Z,12.10
2022-10-12T07:14:07.290Z,12.60
2022-10-12T07:26:07.772Z,13.50
2022-10-12T07:38:08.206Z,11.30
2022-10-12T07:50:08.664Z,13.60
2022-10-12T08:02:09.218Z,12.20
2022-10-12T08:08:09.100Z,11.70
2022-10-12T08:14:09.132Z,12.40
2022-10-12T08:26:09.589Z,12.50
2022-10-12T08:38:10.012Z,11.80
2022-10-12T08:44:10.036Z,10.40
2022-10-12T08:50:10.009Z,10.70
2022-10-12T08:56:10.061Z,10.40
2022-10-12T09:02:17.307Z,10.30
2022-10-12T09:08:17.286Z,10.10
2022-10-12T09:20:17.741Z,8.60
2022-10-12T09:32:18.197Z,8.50
2022-10-12T09:44:18.665Z,7.60
2022-10-12T09:56:19.113Z,8.00
2022-10-12T10:02:19.045Z,8.40
2022-10-12T10:08:19.062Z,8.00
2022-10-12T10:20:19.755Z,8.10
2022-10-12T10:26:19.549Z,8.90
2022-10-12T10:32:19.555Z,9.40
2022-10-12T10:38:19.530Z,9.50
2022-10-12T10:44:26.498Z,10.70
2022-10-12T10:50:26.525Z,10.70
2022-10-12T10:56:26.526Z,11.00
2022-10-12T11:02:26.512Z,11.00
2022-10-12T11:08:26.527Z,11.10
2022-10-12T11:14:26.761Z,10.50
2022-10-12T11:20:26.766Z,14.90
2022-10-12T11:32:27.171Z,10.30
2022-10-12T11:44:30.305Z,10.90
2022-10-12T11:50:27.621Z,10.80
2022-10-12T11:56:27.621Z,10.40
2022-10-12T12:08:28.099Z,11.00
2022-10-12T12:20:28.557Z,10.50
2022-10-12T12:32:29.057Z,9.80
2022-10-12T12:44:29.478Z,9.30
2022-10-12T12:50:29.436Z,9.60
2022-10-12T12:56:29.424Z,10.40
2022-10-12T13:08:29.940Z,10.40
2022-10-12T13:14:29.949Z,10.60
2022-10-12T13:20:29.905Z,11.50
2022-10-12T13:32:30.557Z,11.00
2022-10-12T13:44:30.858Z,11.30
2022-10-12T13:50:30.831Z,10.40
2022-10-12T13:56:30.820Z,10.30
2022-10-12T14:02:30.821Z,11.30
2022-10-12T14:14:40.692Z,10.90
2022-10-12T14:20:40.684Z,11.40
2022-10-12T14:26:40.679Z,10.90
2022-10-12T14:32:40.695Z,10.20
2022-10-12T14:38:47.585Z,10.70
2022-10-12T14:44:47.646Z,11.40
2022-10-12T14:56:48.055Z,10.80
2022-10-12T15:08:48.509Z,10.80
2022-10-12T15:14:48.530Z,10.70
2022-10-12T15:20:49.567Z,11.70
2022-10-12T15:26:48.545Z,11.10
2022-10-12T15:32:55.438Z,10.70
2022-10-12T15:38:55.452Z,10.60
2022-10-12T15:44:55.520Z,11.70
2022-10-12T15:50:55.486Z,11.50
2022-10-12T16:02:55.947Z,11.70
2022-10-12T16:08:55.905Z,11.00
2022-10-12T16:14:55.907Z,12.00
2022-10-12T16:20:55.937Z,12.00
2022-10-12T16:27:03.357Z,12.20
2022-10-12T16:33:03.375Z,12.30
2022-10-12T16:39:03.363Z,15.30
2022-10-12T16:45:03.370Z,14.60
2022-10-12T16:51:03.370Z,15.80
2022-10-12T16:57:03.464Z,14.60
2022-10-12T17:03:03.366Z,14.40
2022-10-12T17:09:03.682Z,16.40
2022-10-12T17:15:03.398Z,17.40
2022-10-12T17:21:03.395Z,15.30
2022-10-12T17:27:04.290Z,16.00
2022-10-12T17:33:03.925Z,18.00
2022-10-12T17:39:03.925Z,17.00
2022-10-12T17:45:03.967Z,19.20
2022-10-12T17:51:04.018Z,18.60
2022-10-12T17:57:04.077Z,19.50
2022-10-12T18:03:03.899Z,19.20
2022-10-12T18:09:03.937Z,20.30
2022-10-12T18:15:03.927Z,21.30
2022-10-12T18:21:03.945Z,21.40
2022-10-12T18:27:03.933Z,21.10
2022-10-12T18:33:03.932Z,23.00
2022-10-12T18:39:03.930Z,22.30
2022-10-12T18:45:03.928Z,23.90
2022-10-12T18:51:03.943Z,25.20
2022-10-12T18:57:03.955Z,26.20
2022-10-12T19:03:03.924Z,25.70
2022-10-12T19:09:03.916Z,24.60
2022-10-12T19:15:03.977Z,24.70
2022-10-12T19:21:03.956Z,27.30
2022-10-12T19:27:03.940Z,27.60
2022-10-12T19:33:03.967Z,27.80
2022-10-12T19:39:03.919Z,24.50
2022-10-12T19:45:03.931Z,25.60
2022-10-12T19:51:03.937Z,24.60
2022-10-12T19:57:03.977Z,24.10
2022-10-12T20:03:04.412Z,24.70
2022-10-12T20:09:03.899Z,23.90
2022-10-12T20:15:03.930Z,24.40
2022-10-12T20:21:03.908Z,24.30
2022-10-12T20:27:03.997Z,25.40
2022-10-12T20:33:03.934Z,24.90
2022-10-12T20:39:03.974Z,26.90
2022-10-12T20:45:03.943Z,24.10
2022-10-12T20:51:03.949Z,24.50
2022-10-12T20:57:03.936Z,24.20
2022-10-12T21:03:03.917Z,25.60
2022-10-12T21:09:03.942Z,24.80
2022-10-12T21:15:03.907Z,25.50
2022-10-12T21:21:03.921Z,24.30
2022-10-12T21:27:03.902Z,23.50
2022-10-12T21:33:03.907Z,27.00
2022-10-12T21:39:03.937Z,27.90
2022-10-12T21:45:03.914Z,27.50
2022-10-12T21:51:03.901Z,28.00
2022-10-12T21:57:03.985Z,27.60
2022-10-12T22:03:03.901Z,27.40
2022-10-12T22:09:03.906Z,28.60
2022-10-12T22:15:03.935Z,30.40
2022-10-12T22:21:03.921Z,31.40
2022-10-12T22:27:03.906Z,32.10
2022-10-12T22:33:03.916Z,32.60
2022-10-12T22:39:03.910Z,29.30
2022-10-12T22:45:03.910Z,29.20
2022-10-12T22:51:03.893Z,27.60
2022-10-12T22:57:03.917Z,28.00
2022-10-12T23:03:03.902Z,29.30
2022-10-12T23:09:03.937Z,28.70
2022-10-12T23:15:03.935Z,28.20
2022-10-12T23:21:03.908Z,29.40
2022-10-12T23:27:03.910Z,26.80
2022-10-12T23:33:03.957Z,27.90
2022-10-12T23:39:03.916Z,29.30
2022-10-12T23:45:03.913Z,30.00
2022-10-12T23:51:03.918Z,28.50
2022-10-12T23:57:03.958Z,30.30
